Time;durP1;ratioP1;P1;durP2;ratioP2;P2;SDS_P1;SDS_P2;PMS_P1;PMS_P2;Temp;Humidity;BMP_temperature;BMP_pressure;BME280_temperature;BME280_humidity;BME280_pressure;Samples;Min_cycle;Max_cycle;Signal;HPM_P1;HPM_P2
2022/07/04 00:00:54;;;;;;;0.30;0.28;;;21.90;91.70;;;;;;4936210;29;20028;-69
2022/07/04 00:03:19;;;;;;;0.08;0.00;;;21.80;91.80;;;;;;4935980;29;20507;-69
2022/07/04 00:05:45;;;;;;;0.00;0.00;;;21.80;92.00;;;;;;4936251;29;20040;-69
2022/07/04 00:08:11;;;;;;;0.05;0.05;;;21.80;91.90;;;;;;4950825;28;20031;-69
2022/07/04 00:10:37;;;;;;;19.10;0.63;;;21.80;92.00;;;;;;4936360;29;20090;-69
2022/07/04 00:13:02;;;;;;;0.00;0.00;;;21.80;92.00;;;;;;4936018;29;20028;-69
2022/07/04 00:15:28;;;;;;;0.00;0.00;;;21.80;92.10;;;;;;4933982;29;20092;-69
2022/07/04 00:17:54;;;;;;;0.00;0.00;;;21.80;92.20;;;;;;4950927;28;20107;-69
2022/07/04 00:20:20;;;;;;;0.00;0.00;;;21.80;92.20;;;;;;4935933;29;20050;-69
2022/07/04 00:22:46;;;;;;;0.40;0.40;;;21.80;92.00;;;;;;4934377;29;20090;-70
2022/07/04 00:25:12;;;;;;;2.60;1.13;;;21.70;92.30;;;;;;4935857;29;20461;-69
2022/07/04 00:27:37;;;;;;;0.30;0.30;;;21.70;92.30;;;;;;4934843;29;20067;-69
2022/07/04 00:30:05;;;;;;;0.98;0.90;;;21.70;92.30;;;;;;4950386;29;20058;-70
2022/07/04 00:32:30;;;;;;;0.00;0.00;;;21.60;92.60;;;;;;4935734;29;20040;-69
2022/07/04 00:34:56;;;;;;;0.05;0.05;;;21.60;92.50;;;;;;4935769;29;20028;-69
2022/07/04 00:37:22;;;;;;;0.15;0.10;;;21.60;92.60;;;;;;4934292;29;20032;-69
2022/07/04 00:39:48;;;;;;;0.10;0.10;;;21.60;92.70;;;;;;4935702;29;20032;-69
2022/07/04 00:42:14;;;;;;;0.05;0.05;;;21.60;92.80;;;;;;4935418;29;20797;-69
2022/07/04 00:44:40;;;;;;;0.25;0.20;;;21.50;92.80;;;;;;4950114;29;20058;-69
2022/07/04 00:47:07;;;;;;;0.10;0.03;;;21.50;92.90;;;;;;4935777;29;20035;-69
2022/07/04 00:49:34;;;;;;;0.43;0.35;;;21.50;92.90;;;;;;4934345;29;20036;-69
2022/07/04 00:52:01;;;;;;;0.00;0.00;;;21.50;92.80;;;;;;4935228;29;20039;-70
2022/07/04 00:54:31;;;;;;;0.20;0.20;;;21.40;93.00;;;;;;4934963;29;20038;-70
2022/07/04 00:56:58;;;;;;;0.25;0.25;;;21.30;93.00;;;;;;4950032;29;20461;-70
2022/07/04 00:59:25;;;;;;;0.47;0.40;;;21.30;93.30;;;;;;4934992;29;20035;-70
2022/07/04 01:01:51;;;;;;;0.00;0.00;;;21.30;93.40;;;;;;4949874;29;20031;-68
2022/07/04 01:04:17;;;;;;;0.05;0.03;;;21.30;93.40;;;;;;4950282;28;20023;-70
2022/07/04 01:06:47;;;;;;;0.00;0.00;;;21.30;93.30;;;;;;4947758;28;20020;-70
2022/07/04 01:09:13;;;;;;;0.00;0.00;;;21.30;93.30;;;;;;4956488;28;20400;-70
2022/07/04 01:11:39;;;;;;;1.35;0.35;;;21.40;93.20;;;;;;4960032;28;20035;-70
2022/07/04 01:14:06;;;;;;;0.55;0.55;;;21.40;93.00;;;;;;4968774;28;20312;-70
2022/07/04 01:16:33;;;;;;;0.28;0.25;;;21.40;92.80;;;;;;4953713;28;20111;-70
2022/07/04 01:18:58;;;;;;;0.00;0.00;;;21.30;92.70;;;;;;4949515;29;20024;-70
2022/07/04 01:21:25;;;;;;;0.00;0.00;;;21.20;92.80;;;;;;4934918;29;20079;-70
2022/07/04 01:23:51;;;;;;;0.20;0.13;;;21.20;92.80;;;;;;4938919;29;20114;-70
2022/07/04 01:26:17;;;;;;;0.28;0.28;;;21.10;93.20;;;;;;4953810;28;20113;-70
2022/07/04 01:28:44;;;;;;;0.00;0.00;;;21.20;93.20;;;;;;4953767;28;20116;-70
2022/07/04 01:31:10;;;;;;;2.20;1.02;;;21.20;93.20;;;;;;4953763;28;20070;-69
2022/07/04 01:33:36;;;;;;;0.82;0.75;;;21.30;93.20;;;;;;4953261;29;20062;-69
2022/07/04 01:36:02;;;;;;;0.00;0.00;;;21.20;93.30;;;;;;4968773;28;20066;-69
2022/07/04 01:38:28;;;;;;;0.10;0.10;;;21.20;93.40;;;;;;4953275;28;20466;-69
2022/07/04 01:40:53;;;;;;;0.00;0.00;;;21.20;93.50;;;;;;4948118;29;20119;-70
2022/07/04 01:43:19;;;;;;;0.00;0.00;;;21.10;93.70;;;;;;4949031;29;20407;-69
2022/07/04 01:45:45;;;;;;;0.10;0.10;;;21.00;94.00;;;;;;4934437;29;20043;-69
2022/07/04 01:48:12;;;;;;;0.00;0.00;;;20.90;94.20;;;;;;4932997;29;20066;-70
2022/07/04 01:50:39;;;;;;;0.10;0.10;;;20.80;94.70;;;;;;4933063;29;20027;-70
2022/07/04 01:53:06;;;;;;;0.63;0.40;;;20.90;94.70;;;;;;4934023;29;20086;-70
2022/07/04 01:55:32;;;;;;;0.10;0.10;;;21.00;94.70;;;;;;4948470;29;20031;-69
2022/07/04 01:58:00;;;;;;;0.00;0.00;;;20.90;94.50;;;;;;4934182;29;20138;-70
2022/07/04 02:03:10;;;;;;;0.00;0.00;;;20.70;94.80;;;;;;4933919;29;20024;-70
2022/07/04 02:05:39;;;;;;;0.00;0.00;;;20.70;94.80;;;;;;4949150;29;20044;-70
2022/07/04 02:08:07;;;;;;;0.00;0.00;;;20.60;95.30;;;;;;4932541;29;20035;-70
2022/07/04 02:10:33;;;;;;;0.00;0.00;;;20.60;95.60;;;;;;4934239;29;20597;-70
2022/07/04 02:13:02;;;;;;;0.00;0.00;;;20.60;95.70;;;;;;4948576;29;20059;-70
2022/07/04 02:15:39;;;;;;;0.10;0.10;;;20.70;95.70;;;;;;4942680;29;20494;-71
2022/07/04 02:18:10;;;;;;;2.63;0.55;;;20.70;95.70;;;;;;4967859;28;20067;-70
2022/07/04 02:20:37;;;;;;;0.15;0.15;;;20.70;95.70;;;;;;4953048;29;20023;-70
2022/07/04 02:23:04;;;;;;;0.00;0.00;;;20.70;95.90;;;;;;4951068;29;20431;-70
2022/07/04 02:25:31;;;;;;;0.05;0.03;;;20.70;95.80;;;;;;4953199;28;20066;-70
2022/07/04 02:27:57;;;;;;;0.10;0.10;;;20.70;95.80;;;;;;4967920;28;20559;-70
2022/07/04 02:30:23;;;;;;;0.00;0.00;;;20.70;95.90;;;;;;4953106;29;20035;-70
2022/07/04 02:32:50;;;;;;;0.00;0.00;;;20.60;95.50;;;;;;4967359;28;20039;-70
2022/07/04 02:35:16;;;;;;;0.00;0.00;;;20.50;95.60;;;;;;4967530;28;20035;-70
2022/07/04 02:37:42;;;;;;;0.00;0.00;;;20.50;95.70;;;;;;4967609;28;20100;-70
2022/07/04 02:40:08;;;;;;;0.55;0.47;;;20.40;96.00;;;;;;4956024;28;20044;-70
2022/07/04 02:42:35;;;;;;;0.00;0.00;;;20.30;96.00;;;;;;4956509;29;20028;-70
2022/07/04 02:45:02;;;;;;;0.00;0.00;;;20.40;96.00;;;;;;4971408;28;20058;-70
2022/07/04 02:47:28;;;;;;;0.00;0.00;;;20.30;96.10;;;;;;4956555;28;20031;-69
2022/07/04 02:49:54;;;;;;;0.10;0.10;;;20.20;96.10;;;;;;4956856;29;20038;-69
2022/07/04 02:52:20;;;;;;;0.00;0.00;;;20.30;96.40;;;;;;4956379;29;20038;-69
2022/07/04 02:54:46;;;;;;;0.00;0.00;;;20.20;96.20;;;;;;4956455;29;20028;-69
2022/07/04 02:57:13;;;;;;;0.00;0.00;;;20.20;96.30;;;;;;4971394;28;20035;-70
2022/07/04 02:59:39;;;;;;;0.00;0.00;;;20.20;96.20;;;;;;4970978;28;20031;-70
2022/07/04 03:02:05;;;;;;;0.00;0.00;;;20.10;96.20;;;;;;4971346;28;20094;-69
2022/07/04 03:04:30;;;;;;;0.45;0.25;;;20.00;96.80;;;;;;4956415;29;20136;-69
2022/07/04 03:06:56;;;;;;;0.22;0.17;;;19.90;96.70;;;;;;4956288;29;20031;-69
2022/07/04 03:09:23;;;;;;;0.32;0.10;;;19.90;97.00;;;;;;4971215;28;20415;-69
2022/07/04 03:11:49;;;;;;;0.00;0.00;;;19.80;97.40;;;;;;4971443;28;20043;-69
2022/07/04 03:14:14;;;;;;;0.17;0.17;;;19.90;97.20;;;;;;4970915;28;20031;-69
2022/07/04 03:16:40;;;;;;;0.10;0.10;;;19.90;97.50;;;;;;4937843;29;20032;-69
2022/07/04 03:19:06;;;;;;;0.20;0.20;;;20.00;97.50;;;;;;4967925;28;20424;-70
2022/07/04 03:21:32;;;;;;;0.15;0.15;;;19.90;97.50;;;;;;4968014;28;20111;-69
2022/07/04 03:23:58;;;;;;;0.00;0.00;;;20.00;97.50;;;;;;4936879;29;20391;-69
2022/07/04 03:26:29;;;;;;;0.20;0.15;;;20.00;97.30;;;;;;4936770;29;20044;-69
2022/07/04 03:28:57;;;;;;;0.00;0.00;;;19.80;97.40;;;;;;4951618;29;20028;-69
2022/07/04 03:31:23;;;;;;;0.00;0.00;;;19.70;97.90;;;;;;4951481;28;20040;-70
2022/07/04 03:33:50;;;;;;;0.00;0.00;;;19.60;98.30;;;;;;4950650;29;20539;-71
2022/07/04 03:36:17;;;;;;;0.10;0.10;;;19.60;98.40;;;;;;4951376;29;20044;-71
2022/07/04 03:38:43;;;;;;;0.00;0.00;;;19.50;99.00;;;;;;4951049;28;20038;-71
2022/07/04 03:41:09;;;;;;;0.00;0.00;;;19.60;98.90;;;;;;4951158;29;20468;-71
2022/07/04 03:43:35;;;;;;;0.00;0.00;;;19.60;98.80;;;;;;4936104;29;20028;-70
2022/07/04 03:46:01;;;;;;;0.15;0.15;;;19.40;99.20;;;;;;4936509;29;20369;-70
2022/07/04 03:48:27;;;;;;;0.00;0.00;;;19.40;99.70;;;;;;4950999;29;20043;-70
2022/07/04 03:50:53;;;;;;;0.00;0.00;;;19.50;99.50;;;;;;4950184;28;20034;-70
2022/07/04 03:53:19;;;;;;;0.28;0.13;;;19.50;99.40;;;;;;4935000;29;20035;-70
2022/07/04 03:55:45;;;;;;;0.35;0.35;;;19.50;99.70;;;;;;4936027;29;20499;-71
2022/07/04 03:58:11;;;;;;;0.05;0.03;;;19.40;99.90;;;;;;4968152;23;20051;-77
2022/07/04 04:00:37;;;;;;;0.35;0.17;;;19.40;99.90;;;;;;4964753;28;20121;-81
2022/07/04 04:05:25;;;;;;;0.10;0.10;;;19.50;99.90;;;;;;4949923;28;20024;-81
2022/07/04 04:05:48;;;;;;;0.00;0.00;;;19.60;99.80;;;;;;4974934;28;20074;-79
2022/07/04 04:08:14;;;;;;;0.20;0.20;;;19.70;99.50;;;;;;4968543;28;20436;-78
2022/07/04 04:10:40;;;;;;;1.10;0.85;;;19.60;99.50;;;;;;4950720;28;20037;-82
2022/07/04 04:13:06;;;;;;;0.00;0.00;;;19.60;99.50;;;;;;4951325;28;20475;-82
2022/07/04 04:15:31;;;;;;;0.00;0.00;;;19.60;99.70;;;;;;4964038;28;20042;-80
2022/07/04 04:17:57;;;;;;;0.00;0.00;;;19.70;99.50;;;;;;4941042;28;22534;-80
2022/07/04 04:20:23;;;;;;;0.10;0.10;;;19.60;99.90;;;;;;4986334;28;20027;-79
2022/07/04 04:22:50;;;;;;;2.20;0.70;;;19.60;99.90;;;;;;4973576;28;20027;-80
2022/07/04 04:25:16;;;;;;;0.00;0.00;;;19.70;99.70;;;;;;4974393;28;20035;-79
2022/07/04 04:27:42;;;;;;;0.20;0.10;;;19.70;99.60;;;;;;4973772;28;20042;-79
2022/07/04 04:30:09;;;;;;;0.15;0.15;;;19.70;99.70;;;;;;4973912;28;20031;-78
2022/07/04 04:32:34;;;;;;;0.32;0.32;;;19.50;99.90;;;;;;4973218;28;20043;-78
2022/07/04 04:35:00;;;;;;;2.13;1.17;;;19.30;99.90;;;;;;4956776;28;20388;-81
2022/07/04 04:37:26;;;;;;;0.10;0.05;;;19.20;99.90;;;;;;4955072;29;20030;-79
2022/07/04 04:39:52;;;;;;;0.00;0.00;;;19.50;99.90;;;;;;4954381;29;20030;-79
2022/07/04 04:42:17;;;;;;;6.43;1.98;;;19.70;99.80;;;;;;4954359;28;20031;-81
2022/07/04 04:44:43;;;;;;;54.72;0.85;;;19.70;99.50;;;;;;4954288;28;20125;-81
2022/07/04 04:47:09;;;;;;;0.00;0.00;;;19.70;99.70;;;;;;4953274;29;20066;-81
2022/07/04 04:49:35;;;;;;;0.00;0.00;;;19.80;99.30;;;;;;4955167;29;20042;-79
2022/07/04 04:52:00;;;;;;;0.17;0.08;;;19.90;99.30;;;;;;4954885;29;20050;-79
2022/07/04 04:54:26;;;;;;;0.03;0.03;;;19.90;99.40;;;;;;4954486;29;20028;-80
2022/07/04 04:56:52;;;;;;;0.00;0.00;;;20.10;99.60;;;;;;4954155;29;20395;-84
2022/07/04 04:59:17;;;;;;;0.32;0.32;;;20.10;98.90;;;;;;4953773;29;20035;-80
2022/07/04 05:01:43;;;;;;;0.00;0.00;;;19.90;99.50;;;;;;4953973;28;20031;-79
2022/07/04 05:04:09;;;;;;;0.00;0.00;;;20.10;99.60;;;;;;4953561;28;20542;-83
2022/07/04 05:06:35;;;;;;;0.35;0.35;;;20.20;99.40;;;;;;4954037;28;20031;-82
2022/07/04 05:09:01;;;;;;;0.00;0.00;;;20.30;99.10;;;;;;4951873;28;20042;-82
2022/07/04 05:11:27;;;;;;;0.13;0.13;;;20.30;98.80;;;;;;4951383;28;20423;-82
2022/07/04 05:13:53;;;;;;;0.80;0.80;;;20.20;98.90;;;;;;4953704;29;20042;-83
2022/07/04 05:16:18;;;;;;;0.70;0.38;;;20.20;98.70;;;;;;4969490;28;20035;-82
2022/07/04 05:18:44;;;;;;;1.25;0.65;;;20.30;98.90;;;;;;4973716;28;20379;-84
2022/07/04 05:21:10;;;;;;;0.00;0.00;;;20.30;98.80;;;;;;4972135;28;20050;-83
2022/07/04 05:23:36;;;;;;;0.00;0.00;;;20.30;98.90;;;;;;4972577;28;20108;-77
2022/07/04 05:26:01;;;;;;;6.22;1.35;;;20.30;98.60;;;;;;4973307;28;20174;-83
2022/07/04 05:28:27;;;;;;;0.00;0.00;;;20.30;98.70;;;;;;4972933;28;20505;-82
2022/07/04 05:30:53;;;;;;;0.00;0.00;;;20.20;98.80;;;;;;4973304;28;20106;-83
2022/07/04 05:33:18;;;;;;;0.10;0.10;;;20.20;99.00;;;;;;4971131;28;20031;-82
2022/07/04 05:35:44;;;;;;;0.00;0.00;;;20.00;99.20;;;;;;4972592;28;20125;-83
2022/07/04 05:38:10;;;;;;;0.00;0.00;;;20.10;99.30;;;;;;4972718;28;20035;-80
2022/07/04 05:40:36;;;;;;;0.00;0.00;;;20.10;99.10;;;;;;4971876;28;20497;-83
2022/07/04 05:43:01;;;;;;;0.00;0.00;;;19.90;99.60;;;;;;4972646;28;20113;-81
2022/07/04 05:45:27;;;;;;;0.00;0.00;;;19.90;99.80;;;;;;4972439;28;20062;-83
2022/07/04 05:47:53;;;;;;;0.00;0.00;;;20.00;99.90;;;;;;4972457;28;20041;-77
2022/07/04 05:50:19;;;;;;;0.10;0.10;;;20.00;99.80;;;;;;4970966;28;20069;-77
2022/07/04 05:52:44;;;;;;;1.65;0.60;;;20.20;99.60;;;;;;4971319;28;20499;-76
2022/07/04 05:55:10;;;;;;;0.00;0.00;;;20.30;99.30;;;;;;4969778;28;20038;-76
2022/07/04 05:57:36;;;;;;;0.00;0.00;;;20.30;99.00;;;;;;4972614;28;20054;-77
2022/07/04 06:00:05;;;;;;;0.00;0.00;;;20.40;99.20;;;;;;4972346;28;20026;-76
2022/07/04 06:02:31;;;;;;;0.00;0.00;;;20.50;98.90;;;;;;4955537;28;20043;-76
2022/07/04 06:04:57;;;;;;;2.03;0.60;;;20.40;99.00;;;;;;4938759;29;20031;-71
2022/07/04 06:07:22;;;;;;;0.10;0.10;;;20.40;98.70;;;;;;4950766;29;20027;-70
2022/07/04 06:09:48;;;;;;;0.00;0.00;;;20.30;99.00;;;;;;4952185;29;20054;-71
2022/07/04 06:12:14;;;;;;;0.00;0.00;;;20.10;99.30;;;;;;4962473;28;20519;-71
2022/07/04 06:14:40;;;;;;;0.95;0.80;;;20.00;99.60;;;;;;4941601;29;20062;-70
2022/07/04 06:17:06;;;;;;;0.47;0.47;;;20.00;99.70;;;;;;4951532;29;20395;-71
2022/07/04 06:19:32;;;;;;;0.00;0.00;;;19.90;99.90;;;;;;4966749;28;20087;-70
2022/07/04 06:21:58;;;;;;;0.03;0.03;;;19.90;99.90;;;;;;4969954;28;20105;-70
2022/07/04 06:24:23;;;;;;;0.30;0.30;;;19.90;99.90;;;;;;4971601;28;20071;-70
2022/07/04 06:26:49;;;;;;;0.00;0.00;;;20.00;99.90;;;;;;4971442;28;20094;-71
2022/07/04 06:29:15;;;;;;;0.10;0.10;;;20.00;99.90;;;;;;4972122;28;20031;-70
2022/07/04 06:31:41;;;;;;;0.00;0.00;;;19.90;99.90;;;;;;4970974;28;20517;-71
2022/07/04 06:36:51;;;;;;;0.00;0.00;;;20.10;99.80;;;;;;4972539;28;20402;-70
2022/07/04 06:39:17;;;;;;;0.20;0.20;;;20.20;99.40;;;;;;4972048;28;20030;-70
2022/07/04 06:41:43;;;;;;;4.32;0.63;;;20.20;99.40;;;;;;4972079;28;20542;-70
2022/07/04 06:44:08;;;;;;;6.07;1.85;;;20.30;99.40;;;;;;4971661;28;20034;-70
2022/07/04 06:46:34;;;;;;;0.00;0.00;;;20.30;99.30;;;;;;4971927;28;20034;-70
2022/07/04 06:49:00;;;;;;;0.30;0.30;;;20.30;99.50;;;;;;4972130;28;20109;-70
2022/07/04 06:51:26;;;;;;;0.55;0.55;;;20.30;99.50;;;;;;4972060;28;20778;-70
2022/07/04 06:53:51;;;;;;;0.00;0.00;;;20.40;99.30;;;;;;4971947;28;20031;-70
2022/07/04 06:56:18;;;;;;;0.35;0.35;;;20.50;99.20;;;;;;4971967;28;20037;-71
2022/07/04 06:58:43;;;;;;;0.15;0.15;;;20.60;99.10;;;;;;4972190;28;20463;-71
2022/07/04 07:01:09;;;;;;;0.10;0.10;;;20.60;99.00;;;;;;4971934;28;20081;-70
2022/07/04 07:03:35;;;;;;;0.10;0.08;;;20.60;99.00;;;;;;4971758;28;20074;-71
2022/07/04 07:06:02;;;;;;;0.00;0.00;;;20.70;99.00;;;;;;4970742;28;20034;-70
2022/07/04 07:08:30;;;;;;;0.00;0.00;;;20.60;99.00;;;;;;4972016;28;20037;-70
2022/07/04 07:10:57;;;;;;;0.00;0.00;;;20.70;98.60;;;;;;4972036;28;20044;-71
2022/07/04 07:13:23;;;;;;;0.10;0.10;;;20.80;98.60;;;;;;4970584;28;20118;-70
2022/07/04 07:15:49;;;;;;;0.28;0.28;;;20.80;98.50;;;;;;4970598;28;20039;-70
2022/07/04 07:18:16;;;;;;;0.32;0.32;;;20.90;98.50;;;;;;4972137;28;20081;-70
2022/07/04 07:20:43;;;;;;;0.00;0.00;;;21.00;98.40;;;;;;4971983;28;20113;-70
2022/07/04 07:23:08;;;;;;;0.00;0.00;;;21.10;97.60;;;;;;4970134;28;20074;-71
2022/07/04 07:25:34;;;;;;;0.00;0.00;;;21.10;97.10;;;;;;4974021;28;20073;-70
2022/07/04 07:28:00;;;;;;;0.00;0.00;;;21.20;97.10;;;;;;4975318;28;20035;-72
2022/07/04 07:30:26;;;;;;;0.50;0.38;;;21.10;97.00;;;;;;4975200;28;20034;-71
2022/07/04 07:32:52;;;;;;;0.00;0.00;;;21.20;96.70;;;;;;4974874;28;20034;-71
2022/07/04 07:35:18;;;;;;;0.13;0.13;;;21.30;96.50;;;;;;4975385;28;20027;-71
2022/07/04 07:37:43;;;;;;;0.00;0.00;;;21.50;96.30;;;;;;4975182;28;20514;-71
2022/07/04 07:40:10;;;;;;;0.00;0.00;;;21.50;96.40;;;;;;4975113;28;20086;-71
2022/07/04 07:42:35;;;;;;;0.00;0.00;;;21.60;96.20;;;;;;4973588;28;20045;-70
2022/07/04 07:45:01;;;;;;;0.00;0.00;;;21.60;96.10;;;;;;4974730;28;20034;-70
2022/07/04 07:47:28;;;;;;;0.00;0.00;;;21.70;95.80;;;;;;4975038;28;20031;-71
2022/07/04 07:49:54;;;;;;;0.00;0.00;;;21.60;95.90;;;;;;4975076;28;20071;-71
2022/07/04 07:52:19;;;;;;;0.00;0.00;;;21.70;95.50;;;;;;4974531;28;20073;-71
2022/07/04 07:54:45;;;;;;;0.10;0.08;;;21.80;95.30;;;;;;4974784;28;20471;-71
2022/07/04 07:57:11;;;;;;;18.63;1.65;;;21.80;95.40;;;;;;4974867;28;20033;-71
2022/07/04 07:59:36;;;;;;;0.00;0.00;;;21.80;95.20;;;;;;4974598;28;20495;-71
2022/07/04 08:02:03;;;;;;;0.00;0.00;;;21.80;94.60;;;;;;4974781;28;20038;-70
2022/07/04 08:04:34;;;;;;;0.15;0.10;;;22.00;94.70;;;;;;4974350;28;20027;-72
2022/07/04 08:07:09;;;;;;;0.00;0.00;;;22.10;94.30;;;;;;4974817;28;20602;-71
2022/07/04 08:09:36;;;;;;;0.08;0.08;;;22.10;94.10;;;;;;4974573;28;20034;-72
2022/07/04 08:12:04;;;;;;;0.00;0.00;;;22.10;94.00;;;;;;4973213;28;20062;-71
2022/07/04 08:14:31;;;;;;;0.00;0.00;;;22.10;94.10;;;;;;4973227;28;20034;-72
2022/07/04 08:16:58;;;;;;;0.00;0.00;;;22.20;94.00;;;;;;4974909;28;20041;-72
2022/07/04 08:19:24;;;;;;;0.00;0.00;;;22.20;94.00;;;;;;4972908;28;20088;-71
2022/07/04 08:21:51;;;;;;;0.17;0.15;;;22.30;94.30;;;;;;4973477;28;20386;-71
2022/07/04 08:24:18;;;;;;;0.75;0.30;;;22.40;93.90;;;;;;4974072;28;20018;-72
2022/07/04 08:26:45;;;;;;;0.00;0.00;;;22.40;94.20;;;;;;4974233;28;20031;-72
2022/07/04 08:29:20;;;;;;;0.20;0.20;;;22.50;94.00;;;;;;4973971;28;20475;-71
2022/07/04 08:31:46;;;;;;;0.35;0.13;;;22.60;93.60;;;;;;4974606;28;20033;-72
2022/07/04 08:34:12;;;;;;;0.00;0.00;;;22.50;93.60;;;;;;4972842;28;20031;-72
2022/07/04 08:36:38;;;;;;;1.65;0.75;;;22.60;93.70;;;;;;4973514;28;20030;-72
2022/07/04 08:39:04;;;;;;;0.20;0.20;;;22.70;93.60;;;;;;4973975;28;20052;-72
2022/07/04 08:41:38;;;;;;;0.00;0.00;;;22.80;93.60;;;;;;4974263;28;20387;-71
2022/07/04 08:44:07;;;;;;;0.03;0.00;;;22.90;93.40;;;;;;4973890;28;20054;-72
2022/07/04 08:46:37;;;;;;;0.00;0.00;;;23.00;93.10;;;;;;4974104;28;20061;-72
2022/07/04 08:49:30;;;;;;;0.00;0.00;;;23.20;92.20;;;;;;4974184;28;20058;-72
2022/07/04 08:52:05;;;;;;;0.10;0.10;;;23.20;92.50;;;;;;4972855;28;20085;-72
2022/07/04 09:00:04;;;;;;;3.33;0.75;;;23.20;92.50;;;;;;4973388;28;20031;-72
2022/07/04 09:02:32;;;;;;;0.10;0.10;;;23.30;92.40;;;;;;4973702;28;20030;-72
2022/07/04 09:04:58;;;;;;;0.15;0.15;;;23.20;91.50;;;;;;4972378;28;20030;-72
2022/07/04 09:07:26;;;;;;;0.00;0.00;;;23.40;91.90;;;;;;4973732;28;20225;-72
2022/07/04 09:09:52;;;;;;;0.10;0.10;;;23.50;91.20;;;;;;4972418;28;20035;-71
2022/07/04 09:12:18;;;;;;;0.05;0.05;;;23.50;90.70;;;;;;4972184;28;20033;-71
2022/07/04 09:14:44;;;;;;;0.43;0.20;;;23.40;90.60;;;;;;4973121;28;20039;-71
2022/07/04 09:17:10;;;;;;;0.25;0.20;;;23.40;90.40;;;;;;4988483;28;20391;-71
2022/07/04 09:19:36;;;;;;;0.10;0.10;;;23.50;90.50;;;;;;4973286;28;20027;-71
2022/07/04 09:22:05;;;;;;;0.20;0.10;;;23.70;90.60;;;;;;4973028;28;20069;-71
2022/07/04 09:24:50;;;;;;;0.10;0.10;;;23.40;90.30;;;;;;4971821;28;20031;-71
2022/07/04 09:27:34;;;;;;;0.10;0.10;;;23.60;90.30;;;;;;4973096;28;20034;-71
2022/07/04 09:30:00;;;;;;;0.13;0.13;;;23.60;90.50;;;;;;4973122;28;20030;-71
2022/07/04 09:32:52;;;;;;;0.10;0.10;;;23.70;90.50;;;;;;4972655;28;20019;-71
2022/07/04 09:35:22;;;;;;;0.00;0.00;;;23.80;89.50;;;;;;4971793;28;20086;-71
2022/07/04 09:37:51;;;;;;;0.00;0.00;;;23.70;90.00;;;;;;4987782;28;20034;-71
2022/07/04 09:40:27;;;;;;;1.17;0.60;;;23.80;90.40;;;;;;4972983;28;20027;-71
2022/07/04 09:42:55;;;;;;;0.32;0.28;;;23.70;90.00;;;;;;4972471;28;20022;-71
2022/07/04 09:45:24;;;;;;;0.00;0.00;;;23.80;90.20;;;;;;4971626;28;20065;-71
2022/07/04 09:47:57;;;;;;;0.00;0.00;;;23.90;89.20;;;;;;4970954;28;20125;-71
2022/07/04 09:50:25;;;;;;;1.65;0.80;;;24.00;89.40;;;;;;4971705;28;20117;-71
2022/07/04 09:52:54;;;;;;;5.40;1.45;;;24.20;89.70;;;;;;4987230;28;20033;-71
2022/07/04 09:55:30;;;;;;;0.40;0.28;;;24.30;89.30;;;;;;4972555;28;20031;-71
2022/07/04 09:58:02;;;;;;;0.93;0.80;;;24.10;89.00;;;;;;4972387;28;20027;-71
2022/07/04 10:00:40;;;;;;;0.38;0.35;;;24.30;89.60;;;;;;4971477;28;20049;-71
2022/07/04 10:03:28;;;;;;;0.00;0.00;;;24.60;88.00;;;;;;4972507;28;20086;-71
2022/07/04 10:06:11;;;;;;;0.10;0.10;;;24.60;86.90;;;;;;4987169;28;20448;-71
2022/07/04 10:08:40;;;;;;;0.00;0.00;;;24.60;86.40;;;;;;4972519;28;20518;-70
2022/07/04 10:11:06;;;;;;;0.10;0.10;;;24.20;86.30;;;;;;4971319;28;20390;-71
2022/07/04 10:13:33;;;;;;;0.30;0.25;;;24.30;86.20;;;;;;4971851;28;20026;-70
2022/07/04 10:15:59;;;;;;;0.65;0.32;;;24.40;85.60;;;;;;4972724;28;20034;-70
2022/07/04 10:18:25;;;;;;;2.80;0.98;;;24.50;86.10;;;;;;4971265;28;20523;-70
2022/07/04 10:20:55;;;;;;;0.00;0.00;;;24.50;86.10;;;;;;4971167;28;20117;-70
2022/07/04 10:23:23;;;;;;;0.00;0.00;;;24.50;85.70;;;;;;4970626;28;20487;-70
2022/07/04 10:25:53;;;;;;;0.00;0.00;;;24.50;85.10;;;;;;4971244;28;20048;-70
2022/07/04 10:28:20;;;;;;;0.00;0.00;;;24.60;84.50;;;;;;4970983;28;20031;-71
2022/07/04 10:30:54;;;;;;;1.10;0.05;;;24.90;85.30;;;;;;4970982;28;20118;-71
2022/07/04 10:33:25;;;;;;;2.35;0.75;;;25.10;84.40;;;;;;4954844;28;20039;-71
2022/07/04 10:36:29;;;;;;;0.00;0.00;;;25.40;83.10;;;;;;4972249;28;20391;-71
2022/07/04 10:38:59;;;;;;;0.00;0.00;;;25.70;80.90;;;;;;4959626;28;20198;-71
2022/07/04 10:41:27;;;;;;;0.10;0.10;;;25.80;80.20;;;;;;4972554;28;20035;-71
2022/07/04 10:44:08;;;;;;;0.40;0.40;;;25.90;80.40;;;;;;4970686;28;20089;-71
2022/07/04 10:46:45;;;;;;;1.27;0.93;;;25.70;78.80;;;;;;4972159;28;20081;-71
2022/07/04 10:49:19;;;;;;;0.00;0.00;;;25.60;78.20;;;;;;4970817;28;20039;-71
2022/07/04 10:51:54;;;;;;;0.00;0.00;;;25.80;79.10;;;;;;4971175;28;20066;-70
2022/07/04 10:54:38;;;;;;;0.20;0.20;;;26.00;78.00;;;;;;4970873;28;20521;-70
2022/07/04 10:57:22;;;;;;;0.00;0.00;;;25.90;79.40;;;;;;4972060;28;20027;-71
2022/07/04 10:59:54;;;;;;;0.15;0.05;;;26.30;78.20;;;;;;4972947;28;20023;-71
2022/07/04 11:02:22;;;;;;;0.20;0.20;;;26.60;77.30;;;;;;4975562;28;20603;-71
2022/07/04 11:04:55;;;;;;;0.00;0.00;;;26.50;77.00;;;;;;4975800;28;20042;-72
2022/07/04 11:07:29;;;;;;;0.10;0.03;;;26.50;76.00;;;;;;4974731;28;20041;-71
2022/07/04 11:10:10;;;;;;;0.15;0.15;;;26.20;75.60;;;;;;4975475;28;20053;-72
2022/07/04 11:12:56;;;;;;;1.27;0.35;;;25.90;77.20;;;;;;4974166;28;20058;-71
2022/07/04 11:15:25;;;;;;;0.00;0.00;;;26.10;77.30;;;;;;4975263;28;20035;-71
2022/07/04 11:17:52;;;;;;;0.10;0.10;;;26.00;76.60;;;;;;4975752;28;20047;-70
2022/07/04 11:20:22;;;;;;;6.22;0.32;;;26.00;76.60;;;;;;4974671;28;20053;-71
2022/07/04 11:22:47;;;;;;;0.00;0.00;;;26.20;76.30;;;;;;4973728;28;20493;-71
2022/07/04 11:25:15;;;;;;;0.00;0.00;;;26.40;75.60;;;;;;4974282;28;20030;-72
2022/07/04 11:27:41;;;;;;;0.00;0.00;;;26.60;76.00;;;;;;4975538;28;20113;-71
2022/07/04 11:30:09;;;;;;;0.00;0.00;;;27.00;76.00;;;;;;4974236;28;20034;-71
2022/07/04 11:32:37;;;;;;;0.00;0.00;;;27.40;74.70;;;;;;4973704;28;20034;-71
2022/07/04 11:35:06;;;;;;;0.00;0.00;;;27.90;74.70;;;;;;4974952;28;20038;-71
2022/07/04 11:37:33;;;;;;;0.00;0.00;;;28.10;72.90;;;;;;4974275;28;20031;-72
2022/07/04 11:45:52;;;;;;;0.00;0.00;;;27.40;73.00;;;;;;4973878;28;20027;-72
2022/07/04 11:48:26;;;;;;;0.00;0.00;;;28.00;72.50;;;;;;4973797;28;20030;-71
2022/07/04 11:50:54;;;;;;;0.00;0.00;;;27.60;73.10;;;;;;4973583;28;20113;-71
2022/07/04 11:53:20;;;;;;;0.17;0.10;;;27.70;72.40;;;;;;4973446;28;20027;-72
2022/07/04 11:55:56;;;;;;;0.95;0.50;;;27.40;72.10;;;;;;4973693;28;20050;-72
2022/07/04 11:58:22;;;;;;;0.80;0.30;;;27.70;71.80;;;;;;4973117;28;20387;-71
2022/07/04 12:00:48;;;;;;;4.28;0.68;;;28.10;70.80;;;;;;4974842;28;20031;-70
2022/07/04 12:03:14;;;;;;;0.10;0.03;;;28.40;70.90;;;;;;4974400;28;20034;-71
2022/07/04 12:05:41;;;;;;;0.47;0.43;;;28.10;70.50;;;;;;4973479;28;20031;-71
2022/07/04 12:08:07;;;;;;;0.00;0.00;;;28.40;70.20;;;;;;4974541;28;20589;-72
2022/07/04 12:10:34;;;;;;;0.10;0.10;;;28.50;69.40;;;;;;4974645;28;20027;-70
2022/07/04 12:13:08;;;;;;;0.00;0.00;;;28.30;69.90;;;;;;4972111;28;20031;-71
2022/07/04 12:15:41;;;;;;;0.00;0.00;;;28.20;70.30;;;;;;4973416;28;20034;-70
2022/07/04 12:18:28;;;;;;;0.35;0.35;;;28.20;71.20;;;;;;4974270;28;20383;-71
2022/07/04 12:21:09;;;;;;;0.52;0.15;;;28.50;70.40;;;;;;4974491;28;20042;-71
2022/07/04 12:23:36;;;;;;;0.00;0.00;;;28.90;70.70;;;;;;4958540;28;20049;-71
2022/07/04 12:26:01;;;;;;;0.00;0.00;;;28.90;71.30;;;;;;4974351;28;20481;-71
2022/07/04 12:28:36;;;;;;;0.00;0.00;;;29.00;68.60;;;;;;4956707;28;20039;-71
2022/07/04 12:31:02;;;;;;;0.10;0.10;;;29.20;68.60;;;;;;4974497;28;20045;-70
2022/07/04 12:33:29;;;;;;;0.00;0.00;;;29.20;69.50;;;;;;4972260;28;20031;-71
2022/07/04 12:36:00;;;;;;;0.10;0.10;;;29.30;67.70;;;;;;4956654;28;20042;-70
2022/07/04 12:38:29;;;;;;;0.00;0.00;;;28.40;67.60;;;;;;4972965;28;20029;-70
2022/07/04 12:41:13;;;;;;;0.47;0.40;;;28.00;69.70;;;;;;4974023;28;20035;-71
2022/07/04 12:43:39;;;;;;;0.00;0.00;;;28.30;69.30;;;;;;4973282;28;20390;-71
2022/07/04 12:46:06;;;;;;;0.00;0.00;;;28.60;68.60;;;;;;4974117;28;20046;-71
2022/07/04 12:48:32;;;;;;;0.00;0.00;;;29.20;68.50;;;;;;4973777;28;20483;-71
2022/07/04 12:51:13;;;;;;;0.73;0.70;;;29.70;67.60;;;;;;4972502;28;20119;-71
2022/07/04 12:53:40;;;;;;;;;;;29.80;66.70;;;;;;4974131;28;20035;-72
2022/07/04 12:56:07;;;;;;;0.00;0.00;;;30.00;66.00;;;;;;4972513;28;19914;-72
2022/07/04 12:58:33;;;;;;;0.00;0.00;;;29.80;65.00;;;;;;4972103;28;20364;-72
2022/07/04 13:00:59;;;;;;;0.20;0.20;;;29.20;65.20;;;;;;4973997;28;20120;-72
2022/07/04 13:03:25;;;;;;;2.92;0.80;;;29.50;67.20;;;;;;4973375;28;20031;-72
2022/07/04 13:05:51;;;;;;;0.05;0.05;;;29.20;66.20;;;;;;4973523;28;20049;-72
2022/07/04 13:08:16;;;;;;;5.57;0.50;;;29.60;66.00;;;;;;4972014;28;20039;-70